MTB weather

Puerto Adolfo López Mateos Airstrip
Comondú, Baja California Sur, Mexico

Public forecast

Using degrees Celsius for public forecast. Weather courtesy of forecast.io.

METAR (pilot weather report)

Closest report is Loreto International Airport, 63.1 nm (116.9 km) NE. Retrieved 2019/06/26 23:40 UTC (27 minutes ago):

MMLT 262340Z 16008KT 10SM FEW200 32/19 A2980 RMK SLP091 8/005

TAF (pilot weather forecast)

Closest forecast is Loreto International Airport, 63.1 nm (116.9 km) NE. Retrieved 2019/06/26 18:13 UTC (6 hours ago):

TAF MMLT 261706Z 2618/2718 23006KT P6SM SCT260 FM270600 04005KT P6SM SCT120 BKN280